Time;durP1;ratioP1;P1;durP2;ratioP2;P2;SDS_P1;SDS_P2;PMS_P1;PMS_P2;Temp;Humidity;BMP_temperature;BMP_pressure;BME280_temperature;BME280_humidity;BME280_pressure;Samples;Min_cycle;Max_cycle;Signal;HPM_P1;HPM_P2
2023/07/09 00:00:29;;;;;;;;;;;26.30;59.00;;;;;;5073816;28;19977;-35
2023/07/09 00:02:55;;;;;;;;;;;26.20;59.00;;;;;;5073382;28;20016;-36
2023/07/09 00:05:20;;;;;;;;;;;26.20;59.00;;;;;;5073510;28;20321;-37
2023/07/09 00:07:46;;;;;;;;;;;26.20;59.00;;;;;;5073362;28;19913;-42
2023/07/09 00:10:15;;;;;;;;;;;26.20;59.00;;;;;;5073211;28;19921;-35
2023/07/09 00:12:41;;;;;;;;;;;26.20;59.10;;;;;;5073117;28;19920;-35
2023/07/09 00:15:09;;;;;;;;;;;26.20;59.20;;;;;;5073284;28;19912;-45
2023/07/09 00:17:35;;;;;;;;;;;26.10;59.10;;;;;;5073385;28;20383;-34
2023/07/09 00:20:01;;;;;;;;;;;26.10;59.20;;;;;;5073143;28;19934;-34
2023/07/09 00:22:27;;;;;;;;;;;26.10;59.30;;;;;;5073075;28;19988;-35
2023/07/09 00:24:56;;;;;;;;;;;26.00;59.30;;;;;;5073020;28;20295;-36
2023/07/09 00:27:24;;;;;;;;;;;26.00;59.40;;;;;;5071708;28;19912;-40
2023/07/09 00:29:52;;;;;;;;;;;26.00;59.40;;;;;;5072665;28;19917;-35
2023/07/09 00:32:20;;;;;;;;;;;26.00;59.40;;;;;;5072881;28;19920;-36
2023/07/09 00:34:48;;;;;;;;;;;25.90;59.40;;;;;;5073043;28;20057;-36
2023/07/09 00:37:16;;;;;;;;;;;25.90;59.40;;;;;;5072669;28;20390;-35
2023/07/09 00:39:42;;;;;;;;;;;25.90;59.50;;;;;;5072618;28;19916;-37
2023/07/09 00:42:12;;;;;;;;;;;25.90;59.60;;;;;;5072796;28;19913;-37
2023/07/09 00:44:37;;;;;;;;;;;25.80;59.50;;;;;;5072639;28;20017;-36
2023/07/09 00:47:05;;;;;;;;;;;25.80;59.60;;;;;;5072802;28;19959;-37
2023/07/09 00:49:46;;;;;;;;;;;25.80;59.70;;;;;;5072556;28;20028;-35
2023/07/09 00:52:33;;;;;;;;;;;25.70;59.70;;;;;;5072543;28;19917;-35
2023/07/09 00:55:01;;;;;;;;;;;25.70;59.70;;;;;;5072587;28;20376;-34
2023/07/09 00:57:27;;;;;;;;;;;25.70;59.70;;;;;;5071924;28;19912;-34
2023/07/09 00:59:57;;;;;;;;;;;25.70;59.70;;;;;;5072329;28;19919;-35
2023/07/09 01:02:25;;;;;;;;;;;25.70;59.70;;;;;;5072538;28;20088;-37
2023/07/09 01:04:56;;;;;;;;;;;25.70;59.80;;;;;;5072420;28;19924;-45
2023/07/09 01:07:22;;;;;;;;;;;25.70;59.90;;;;;;5072439;28;19918;-39
2023/07/09 01:09:48;;;;;;;;;;;25.70;59.90;;;;;;5072123;28;20252;-41
2023/07/09 01:12:14;;;;;;;;;;;25.60;60.00;;;;;;5072420;28;19912;-46
2023/07/09 01:14:40;;;;;;;;;;;25.60;60.00;;;;;;5072060;28;20421;-39
2023/07/09 01:17:07;;;;;;;;;;;25.60;60.10;;;;;;5072174;28;19916;-34
2023/07/09 01:19:42;;;;;;;;;;;25.60;60.10;;;;;;5072196;28;20364;-35
2023/07/09 01:22:09;;;;;;;;;;;25.60;60.10;;;;;;5072319;28;19919;-35
2023/07/09 01:24:53;;;;;;;;;;;25.60;60.20;;;;;;5072295;28;20128;-34
2023/07/09 01:27:20;;;;;;;;;;;25.50;60.20;;;;;;5072261;28;19916;-36
2023/07/09 01:29:48;;;;;;;;;;;25.50;60.20;;;;;;5071738;28;20005;-38
2023/07/09 01:32:18;;;;;;;;;;;25.50;60.20;;;;;;5071905;28;19954;-35
2023/07/09 01:34:44;;;;;;;;;;;25.50;60.30;;;;;;5071867;28;19913;-38
2023/07/09 01:37:10;;;;;;;;;;;25.40;60.30;;;;;;5072074;28;20334;-41
2023/07/09 01:39:35;;;;;;;;;;;25.40;60.30;;;;;;5071817;28;20017;-34
2023/07/09 01:42:01;;;;;;;;;;;25.40;60.30;;;;;;5072074;28;20292;-38
2023/07/09 01:44:29;;;;;;;;;;;25.40;60.40;;;;;;5071875;28;20007;-35
2023/07/09 01:46:54;;;;;;;;;;;25.40;60.50;;;;;;5072138;28;20640;-35
2023/07/09 01:49:20;;;;;;;;;;;25.40;60.50;;;;;;5071897;28;19966;-35
2023/07/09 01:51:49;;;;;;;;;;;25.40;60.60;;;;;;5071851;28;20363;-35
2023/07/09 01:54:16;;;;;;;;;;;25.30;60.60;;;;;;5071681;28;19912;-35
2023/07/09 01:56:42;;;;;;;;;;;25.30;60.70;;;;;;5071842;28;19913;-35
2023/07/09 01:59:11;;;;;;;;;;;25.30;60.80;;;;;;5071459;28;20392;-36
2023/07/09 02:01:36;;;;;;;;;;;25.20;60.90;;;;;;5071518;28;19912;-34
2023/07/09 02:04:02;;;;;;;;;;;25.20;61.00;;;;;;5071509;28;19919;-37
2023/07/09 02:06:31;;;;;;;;;;;25.10;61.10;;;;;;5071444;28;19912;-32
2023/07/09 02:08:58;;;;;;;;;;;25.10;61.30;;;;;;5075586;28;19921;-35
2023/07/09 02:11:23;;;;;;;;;;;25.10;61.40;;;;;;5075565;28;19967;-34
2023/07/09 02:13:49;;;;;;;;;;;25.10;61.50;;;;;;5075354;28;20348;-34
2023/07/09 02:16:14;;;;;;;;;;;25.00;61.50;;;;;;5075632;28;19916;-36
2023/07/09 02:18:40;;;;;;;;;;;25.00;61.60;;;;;;5075285;28;19913;-33
2023/07/09 02:21:05;;;;;;;;;;;25.00;61.70;;;;;;5075490;28;19998;-41
2023/07/09 02:23:30;;;;;;;;;;;24.90;61.70;;;;;;5075072;28;19916;-36
2023/07/09 02:25:56;;;;;;;;;;;24.90;61.80;;;;;;5075141;28;20367;-36
2023/07/09 02:28:21;;;;;;;;;;;24.90;61.90;;;;;;5075425;28;19912;-35
2023/07/09 02:30:47;;;;;;;;;;;24.90;62.00;;;;;;5074979;28;19920;-34
2023/07/09 02:33:12;;;;;;;;;;;24.90;62.00;;;;;;5075648;28;19913;-37
2023/07/09 02:35:38;;;;;;;;;;;24.90;62.10;;;;;;5075302;28;20057;-34
2023/07/09 02:38:04;;;;;;;;;;;24.80;62.10;;;;;;5075063;28;20248;-36
2023/07/09 02:40:30;;;;;;;;;;;24.80;62.20;;;;;;5074918;28;19951;-36
2023/07/09 02:42:55;;;;;;;;;;;24.70;62.20;;;;;;5075126;28;19916;-35
2023/07/09 02:45:21;;;;;;;;;;;24.70;62.30;;;;;;5074879;28;20367;-34
2023/07/09 02:47:47;;;;;;;;;;;24.70;62.40;;;;;;5075005;28;20299;-38
2023/07/09 02:50:12;;;;;;;;;;;24.70;62.50;;;;;;5075102;28;19916;-36
2023/07/09 02:52:38;;;;;;;;;;;24.70;62.70;;;;;;5074782;28;19912;-36
2023/07/09 02:55:03;;;;;;;;;;;24.60;62.60;;;;;;5074739;28;19935;-36
2023/07/09 02:57:29;;;;;;;;;;;24.60;62.80;;;;;;5074906;28;20376;-34
2023/07/09 02:59:54;;;;;;;;;;;24.60;62.80;;;;;;5074615;28;19916;-35
2023/07/09 03:02:20;;;;;;;;;;;24.50;62.90;;;;;;5074870;28;20257;-34
2023/07/09 03:04:45;;;;;;;;;;;24.50;63.00;;;;;;5074532;28;20065;-37
2023/07/09 03:07:11;;;;;;;;;;;24.50;63.10;;;;;;5074524;28;19935;-35
2023/07/09 03:09:36;;;;;;;;;;;24.40;63.20;;;;;;5073235;28;19920;-35
2023/07/09 03:12:02;;;;;;;;;;;24.40;63.30;;;;;;5074737;28;20310;-39
2023/07/09 03:14:27;;;;;;;;;;;24.40;63.30;;;;;;5074831;28;19948;-35
2023/07/09 03:16:53;;;;;;;;;;;24.40;63.40;;;;;;5074278;28;19912;-36
2023/07/09 03:19:18;;;;;;;;;;;24.30;63.50;;;;;;5073628;28;20364;-35
2023/07/09 03:21:44;;;;;;;;;;;24.30;63.50;;;;;;5074250;28;20386;-37
2023/07/09 03:24:09;;;;;;;;;;;24.30;63.60;;;;;;5074203;28;19912;-37
2023/07/09 03:26:35;;;;;;;;;;;24.30;63.70;;;;;;5074260;28;19959;-36
2023/07/09 03:29:00;;;;;;;;;;;24.30;63.70;;;;;;5074178;28;19952;-34
2023/07/09 03:31:26;;;;;;;;;;;24.20;63.80;;;;;;5073914;28;19943;-37
2023/07/09 03:33:52;;;;;;;;;;;24.20;63.80;;;;;;5074169;28;19919;-35
2023/07/09 03:36:19;;;;;;;;;;;24.20;63.90;;;;;;5074373;28;20391;-36
2023/07/09 03:38:45;;;;;;;;;;;24.20;63.90;;;;;;5074482;28;19999;-35
2023/07/09 03:41:10;;;;;;;;;;;24.20;64.00;;;;;;5073852;28;20406;-35
2023/07/09 03:43:36;;;;;;;;;;;24.20;64.00;;;;;;5073838;28;19913;-37
2023/07/09 03:46:01;;;;;;;;;;;24.10;64.10;;;;;;5073763;28;19913;-35
2023/07/09 03:48:27;;;;;;;;;;;24.10;64.20;;;;;;5074090;28;19913;-38
2023/07/09 03:50:52;;;;;;;;;;;24.10;64.20;;;;;;5073992;28;19920;-37
2023/07/09 03:53:18;;;;;;;;;;;24.10;64.30;;;;;;5072365;28;20376;-35
2023/07/09 03:55:46;;;;;;;;;;;24.10;64.40;;;;;;5072295;28;19923;-35
2023/07/09 03:58:12;;;;;;;;;;;24.10;64.40;;;;;;5073878;28;20386;-35
2023/07/09 04:00:37;;;;;;;;;;;24.10;64.40;;;;;;5073525;28;19912;-35
2023/07/09 04:03:03;;;;;;;;;;;24.10;64.40;;;;;;5073444;28;19920;-33
2023/07/09 04:05:28;;;;;;;;;;;24.10;64.50;;;;;;5073597;28;19919;-36
2023/07/09 04:07:54;;;;;;;;;;;24.10;64.50;;;;;;5073562;28;19912;-34
2023/07/09 04:10:19;;;;;;;;;;;24.10;64.60;;;;;;5073583;28;19916;-36
2023/07/09 04:12:45;;;;;;;;;;;24.10;64.60;;;;;;5073287;28;19961;-34
2023/07/09 04:15:12;;;;;;;;;;;24.10;64.70;;;;;;5071931;28;20376;-36
2023/07/09 04:17:38;;;;;;;;;;;24.10;64.80;;;;;;5073559;28;20481;-36
2023/07/09 04:20:07;;;;;;;;;;;24.10;64.80;;;;;;5073182;28;20035;-35
2023/07/09 04:22:33;;;;;;;;;;;24.10;64.80;;;;;;5073465;28;20406;-35
2023/07/09 04:24:59;;;;;;;;;;;24.10;64.90;;;;;;5073395;28;20071;-41
2023/07/09 04:27:27;;;;;;;;;;;24.10;64.90;;;;;;5073094;28;20421;-34
2023/07/09 04:29:53;;;;;;;;;;;24.10;65.00;;;;;;5072529;28;20011;-34
2023/07/09 04:32:19;;;;;;;;;;;24.10;65.00;;;;;;5072254;28;19919;-36
2023/07/09 04:34:45;;;;;;;;;;;24.20;65.10;;;;;;5072614;28;19913;-40
2023/07/09 04:37:11;;;;;;;;;;;24.20;65.20;;;;;;5072831;28;19965;-37
2023/07/09 04:39:37;;;;;;;;;;;24.20;65.20;;;;;;5072794;28;19913;-36
2023/07/09 04:42:02;;;;;;;;;;;24.20;65.20;;;;;;5072900;28;20015;-35
2023/07/09 04:44:28;;;;;;;;;;;24.20;65.20;;;;;;5072933;28;19912;-35
2023/07/09 04:46:54;;;;;;;;;;;24.20;65.30;;;;;;5072766;28;19918;-35
2023/07/09 04:49:19;;;;;;;;;;;24.20;65.30;;;;;;5072643;28;19913;-36
2023/07/09 04:51:44;;;;;;;;;;;24.20;65.30;;;;;;5072521;28;20015;-34
2023/07/09 04:54:10;;;;;;;;;;;24.20;65.30;;;;;;5072519;28;19912;-36
2023/07/09 04:56:37;;;;;;;;;;;24.30;65.40;;;;;;5072816;28;20313;-34
2023/07/09 04:59:02;;;;;;;;;;;24.30;65.30;;;;;;5072485;28;19912;-35
2023/07/09 05:01:28;;;;;;;;;;;24.30;65.30;;;;;;5071461;28;19920;-35
2023/07/09 05:03:54;;;;;;;;;;;24.30;65.30;;;;;;5072222;28;20018;-35
2023/07/09 05:06:20;;;;;;;;;;;24.30;65.20;;;;;;5072274;28;19913;-37
2023/07/09 05:08:48;;;;;;;;;;;24.30;65.20;;;;;;5072730;28;19923;-35
2023/07/09 05:11:13;;;;;;;;;;;24.40;65.20;;;;;;5072170;28;19974;-34
2023/07/09 05:13:39;;;;;;;;;;;24.40;65.20;;;;;;5072173;28;19912;-35
2023/07/09 05:16:04;;;;;;;;;;;24.40;65.20;;;;;;5072603;28;19923;-36
2023/07/09 05:18:30;;;;;;;;;;;24.50;65.30;;;;;;5072152;28;19944;-36
2023/07/09 05:20:55;;;;;;;;;;;24.50;65.20;;;;;;5072194;28;20359;-34
2023/07/09 05:23:21;;;;;;;;;;;24.50;65.20;;;;;;5072257;28;19919;-36
2023/07/09 05:25:46;;;;;;;;;;;24.60;65.20;;;;;;5072092;28;19923;-34
2023/07/09 05:28:12;;;;;;;;;;;24.60;65.10;;;;;;5072175;28;20236;-36
2023/07/09 05:30:40;;;;;;;;;;;24.60;65.10;;;;;;5071831;28;19920;-35
2023/07/09 05:33:06;;;;;;;;;;;24.70;65.10;;;;;;5072040;28;20434;-34
2023/07/09 05:35:31;;;;;;;;;;;24.70;65.00;;;;;;5071983;28;19913;-35
2023/07/09 05:37:57;;;;;;;;;;;24.70;64.90;;;;;;5072021;28;19923;-35
2023/07/09 05:40:22;;;;;;;;;;;24.80;64.90;;;;;;5071934;28;19913;-34
2023/07/09 05:42:48;;;;;;;;;;;24.80;64.80;;;;;;5071600;28;20007;-34
2023/07/09 05:45:14;;;;;;;;;;;24.90;64.80;;;;;;5071938;28;20392;-34
2023/07/09 05:47:39;;;;;;;;;;;24.90;64.80;;;;;;5071843;28;19919;-35
2023/07/09 05:50:05;;;;;;;;;;;24.90;64.60;;;;;;5071682;28;19969;-35
2023/07/09 05:52:31;;;;;;;;;;;24.90;64.60;;;;;;5071908;28;19912;-35
2023/07/09 05:54:56;;;;;;;;;;;25.00;65.20;;;;;;5072005;28;19912;-40
2023/07/09 05:57:22;;;;;;;;;;;25.00;64.40;;;;;;5071845;28;19912;-36
2023/07/09 05:59:47;;;;;;;;;;;25.10;64.40;;;;;;5072117;28;19912;-42
2023/07/09 06:02:14;;;;;;;;;;;25.10;64.40;;;;;;5071539;28;19912;-36
2023/07/09 06:04:39;;;;;;;;;;;25.20;64.30;;;;;;5072332;28;19954;-35
2023/07/09 06:07:05;;;;;;;;;;;25.20;64.20;;;;;;5070524;28;19917;-34
2023/07/09 06:09:31;;;;;;;;;;;25.30;64.20;;;;;;5071772;28;19919;-35
2023/07/09 06:11:57;;;;;;;;;;;25.30;64.10;;;;;;5070284;28;19916;-36
2023/07/09 06:14:22;;;;;;;;;;;25.40;64.10;;;;;;5071726;28;19977;-36
2023/07/09 06:16:48;;;;;;;;;;;25.40;63.90;;;;;;5071568;28;19912;-35
2023/07/09 06:19:13;;;;;;;;;;;25.40;63.80;;;;;;5071662;28;19913;-34
2023/07/09 06:21:40;;;;;;;;;;;25.50;63.90;;;;;;5071459;28;19912;-35
2023/07/09 06:24:06;;;;;;;;;;;25.50;63.70;;;;;;5071534;28;20026;-37
2023/07/09 06:26:31;;;;;;;;;;;25.60;63.70;;;;;;5071536;28;20461;-35
2023/07/09 06:28:56;;;;;;;;;;;25.60;63.60;;;;;;5071290;28;19919;-33
2023/07/09 06:31:24;;;;;;;;;;;25.70;63.50;;;;;;5071483;28;19916;-36
2023/07/09 06:33:50;;;;;;;;;;;25.70;63.50;;;;;;5071532;28;19923;-35
2023/07/09 06:36:16;;;;;;;;;;;25.80;63.40;;;;;;5071625;28;19916;-35
2023/07/09 06:38:42;;;;;;;;;;;25.80;63.30;;;;;;5071500;28;19912;-37
2023/07/09 06:41:07;;;;;;;;;;;25.80;63.20;;;;;;5071573;28;20378;-34
2023/07/09 06:43:34;;;;;;;;;;;25.90;63.20;;;;;;5070058;28;19957;-37
2023/07/09 06:46:00;;;;;;;;;;;25.90;63.20;;;;;;5071258;28;19912;-35
2023/07/09 06:48:27;;;;;;;;;;;26.00;63.20;;;;;;5071419;28;20268;-35
2023/07/09 06:50:53;;;;;;;;;;;26.00;63.10;;;;;;5071192;28;19970;-36
2023/07/09 06:53:20;;;;;;;;;;;26.00;63.00;;;;;;5071307;28;19943;-35
2023/07/09 06:55:46;;;;;;;;;;;26.10;63.00;;;;;;5074525;28;19916;-35
2023/07/09 06:58:11;;;;;;;;;;;26.10;62.90;;;;;;5074824;28;19920;-36
2023/07/09 07:00:37;;;;;;;;;;;26.20;62.90;;;;;;5074681;28;20288;-34
2023/07/09 07:03:04;;;;;;;;;;;26.20;62.80;;;;;;5074565;28;20007;-34
2023/07/09 07:05:30;;;;;;;;;;;26.30;62.80;;;;;;5074467;28;20291;-35
2023/07/09 07:07:55;;;;;;;;;;;26.40;62.70;;;;;;5074569;28;19913;-35
2023/07/09 07:10:21;;;;;;;;;;;26.40;62.60;;;;;;5073218;28;19943;-36
2023/07/09 07:12:47;;;;;;;;;;;26.50;62.60;;;;;;5074431;28;19912;-34
2023/07/09 07:15:14;;;;;;;;;;;26.50;62.50;;;;;;5074345;28;20284;-37
2023/07/09 07:17:39;;;;;;;;;;;26.60;62.50;;;;;;5074250;28;20355;-34
2023/07/09 07:20:05;;;;;;;;;;;26.70;62.50;;;;;;5074393;28;20007;-36
2023/07/09 07:22:31;;;;;;;;;;;26.70;62.50;;;;;;5074234;28;20284;-35
2023/07/09 07:24:56;;;;;;;;;;;26.80;62.30;;;;;;5072925;28;19912;-36
2023/07/09 07:27:22;;;;;;;;;;;26.80;62.20;;;;;;5074139;28;19912;-35
2023/07/09 07:29:47;;;;;;;;;;;26.90;62.20;;;;;;5074003;28;20372;-33
2023/07/09 07:32:13;;;;;;;;;;;26.90;62.10;;;;;;5074358;28;19966;-35
2023/07/09 07:34:38;;;;;;;;;;;27.00;62.10;;;;;;5072584;28;20414;-35
2023/07/09 07:37:04;;;;;;;;;;;27.00;62.00;;;;;;5074182;28;19916;-36
2023/07/09 07:39:29;;;;;;;;;;;27.10;62.00;;;;;;5073812;28;20006;-35
2023/07/09 07:41:55;;;;;;;;;;;27.10;61.90;;;;;;5073950;28;19989;-36
2023/07/09 07:44:21;;;;;;;;;;;27.20;62.00;;;;;;5073797;28;19912;-35
2023/07/09 07:46:46;;;;;;;;;;;27.30;61.90;;;;;;5073840;28;20224;-35
2023/07/09 07:49:12;;;;;;;;;;;27.30;61.80;;;;;;5074088;28;19966;-36
2023/07/09 07:51:38;;;;;;;;;;;27.40;61.70;;;;;;5073809;28;19925;-35
2023/07/09 07:54:04;;;;;;;;;;;27.50;62.30;;;;;;5073971;28;19920;-36
2023/07/09 07:56:29;;;;;;;;;;;27.50;61.50;;;;;;5073582;28;19909;-35
2023/07/09 07:58:55;;;;;;;;;;;27.60;61.50;;;;;;5073792;28;20368;-36
2023/07/09 08:01:20;;;;;;;;;;;27.70;61.40;;;;;;5073444;28;19916;-33
2023/07/09 08:03:46;;;;;;;;;;;27.80;61.40;;;;;;5073776;28;19908;-36
2023/07/09 08:06:11;;;;;;;;;;;27.80;61.20;;;;;;5073376;28;19908;-35
2023/07/09 08:08:37;;;;;;;;;;;27.90;61.30;;;;;;5073422;28;19993;-36
2023/07/09 08:11:07;;;;;;;;;;;27.90;61.10;;;;;;5072127;28;19912;-35
2023/07/09 08:13:36;;;;;;;;;;;28.00;61.20;;;;;;5073255;28;19909;-37
2023/07/09 08:16:02;;;;;;;;;;;28.10;61.10;;;;;;5073257;28;19909;-34
2023/07/09 08:18:27;;;;;;;;;;;28.10;60.90;;;;;;5073486;28;19939;-35
2023/07/09 08:20:53;;;;;;;;;;;28.20;60.80;;;;;;5073563;28;19999;-35
2023/07/09 08:23:18;;;;;;;;;;;28.30;61.40;;;;;;5073193;28;19908;-35
2023/07/09 08:25:44;;;;;;;;;;;28.30;60.40;;;;;;5073058;28;19962;-37
2023/07/09 08:28:09;;;;;;;;;;;28.40;60.40;;;;;;5073036;28;19908;-36
2023/07/09 08:30:36;;;;;;;;;;;28.50;60.40;;;;;;5072744;28;20334;-35
2023/07/09 08:33:01;;;;;;;;;;;28.50;60.20;;;;;;5072851;28;19916;-34
2023/07/09 08:35:27;;;;;;;;;;;28.60;60.40;;;;;;5072370;28;19913;-34
2023/07/09 08:37:52;;;;;;;;;;;28.60;60.30;;;;;;5072883;28;19969;-34
2023/07/09 08:40:18;;;;;;;;;;;28.70;60.20;;;;;;5072781;28;19909;-34
2023/07/09 08:42:45;;;;;;;;;;;28.70;60.20;;;;;;5072546;28;19908;-34
2023/07/09 08:45:16;;;;;;;;;;;28.70;60.20;;;;;;5072661;28;19909;-36
2023/07/09 08:47:52;;;;;;;;;;;28.80;60.10;;;;;;5072639;28;20280;-34
2023/07/09 08:50:43;;;;;;;;;;;28.90;60.10;;;;;;5072332;28;19913;-34
2023/07/09 08:53:14;;;;;;;;;;;29.00;60.10;;;;;;5072196;28;19909;-35
2023/07/09 08:55:40;;;;;;;;;;;29.10;60.10;;;;;;5072475;28;19908;-35
2023/07/09 08:58:16;;;;;;;;;;;29.10;59.90;;;;;;5072546;28;20009;-35
2023/07/09 09:00:44;;;;;;;;;;;29.20;59.90;;;;;;5072424;28;19973;-34
2023/07/09 09:03:29;;;;;;;;;;;29.20;59.80;;;;;;5072301;28;19942;-35
2023/07/09 09:05:55;;;;;;;;;;;29.30;59.70;;;;;;5072290;28;19939;-35
2023/07/09 09:08:38;;;;;;;;;;;29.30;59.70;;;;;;5072472;28;20009;-35
2023/07/09 09:11:13;;;;;;;;;;;29.40;59.70;;;;;;5072574;28;19912;-35
2023/07/09 09:13:39;;;;;;;;;;;29.40;59.60;;;;;;5072683;28;19909;-36
2023/07/09 09:16:06;;;;;;;;;;;29.50;59.50;;;;;;5072456;28;19913;-36
2023/07/09 09:18:37;;;;;;;;;;;29.60;59.40;;;;;;5071854;28;19909;-35
2023/07/09 09:21:08;;;;;;;;;;;29.70;59.40;;;;;;5072274;28;20005;-36
2023/07/09 09:23:44;;;;;;;;;;;29.70;59.20;;;;;;5072497;28;20019;-35
2023/07/09 09:26:15;;;;;;;;;;;29.80;59.10;;;;;;5072355;28;19908;-36
2023/07/09 09:28:40;;;;;;;;;;;29.90;59.00;;;;;;5072171;28;19916;-41
2023/07/09 09:31:08;;;;;;;;;;;30.00;58.70;;;;;;5071920;28;20292;-34
2023/07/09 09:33:51;;;;;;;;;;;30.00;58.70;;;;;;5072152;28;19909;-34
2023/07/09 09:36:20;;;;;;;;;;;30.10;58.40;;;;;;5072106;28;20003;-37
2023/07/09 09:38:45;;;;;;;;;;;30.20;58.00;;;;;;5072169;28;19913;-35
2023/07/09 09:41:14;;;;;;;;;;;30.20;58.00;;;;;;5072175;28;19908;-38
2023/07/09 09:43:42;;;;;;;;;;;30.30;58.00;;;;;;5072017;28;19948;-35
2023/07/09 09:46:07;;;;;;;;;;;30.40;58.00;;;;;;5072016;28;19915;-33
2023/07/09 09:48:33;;;;;;;;;;;30.40;57.90;;;;;;5072275;28;19996;-35
2023/07/09 09:51:03;;;;;;;;;;;30.50;57.80;;;;;;5071859;28;19987;-36
2023/07/09 09:53:29;;;;;;;;;;;30.50;57.70;;;;;;5071917;28;19909;-35
2023/07/09 09:55:56;;;;;;;;;;;30.60;57.70;;;;;;5071852;28;19986;-38
2023/07/09 09:58:26;;;;;;;;;;;30.70;57.50;;;;;;5071960;28;19948;-35
2023/07/09 10:00:53;;;;;;;;;;;30.80;57.40;;;;;;5070584;28;19908;-36
2023/07/09 10:03:19;;;;;;;;;;;30.90;57.20;;;;;;5071877;28;20382;-36
2023/07/09 10:05:48;;;;;;;;;;;30.90;57.00;;;;;;5071758;28;19913;-34
2023/07/09 10:08:16;;;;;;;;;;;31.00;56.90;;;;;;5071840;28;19909;-36
2023/07/09 10:10:44;;;;;;;;;;;31.10;56.90;;;;;;5071558;28;19952;-35
2023/07/09 10:13:23;;;;;;;;;;;31.10;56.80;;;;;;5071661;28;19909;-35
2023/07/09 10:16:07;;;;;;;;;;;31.10;56.60;;;;;;5071550;28;20369;-35
2023/07/09 10:18:38;;;;;;;;;;;31.20;56.50;;;;;;5071681;28;19915;-35
2023/07/09 10:21:13;;;;;;;;;;;31.30;56.00;;;;;;5071809;28;19967;-36
2023/07/09 10:23:44;;;;;;;;;;;31.40;56.00;;;;;;5071605;28;19909;-35
2023/07/09 10:26:25;;;;;;;;;;;31.40;56.00;;;;;;5071428;28;19978;-34
2023/07/09 10:28:58;;;;;;;;;;;31.50;55.60;;;;;;5071982;28;19912;-34
2023/07/09 10:31:32;;;;;;;;;;;31.50;55.60;;;;;;5075467;28;19912;-38
2023/07/09 10:34:16;;;;;;;;;;;31.60;55.30;;;;;;5075345;28;19951;-36
2023/07/09 10:36:41;;;;;;;;;;;31.70;55.40;;;;;;5075235;28;20014;-35
2023/07/09 10:39:14;;;;;;;;;;;31.70;55.20;;;;;;5075199;28;20417;-36
2023/07/09 10:41:40;;;;;;;;;;;31.80;54.90;;;;;;5075281;28;19915;-37
2023/07/09 10:44:08;;;;;;;;;;;31.80;54.70;;;;;;5075223;28;20390;-36
2023/07/09 10:46:37;;;;;;;;;;;31.90;54.60;;;;;;5075048;28;19908;-36
2023/07/09 10:49:06;;;;;;;;;;;32.00;53.90;;;;;;5075007;28;19916;-35
2023/07/09 10:51:55;;;;;;;;;;;32.10;53.90;;;;;;5074959;28;19912;-36
2023/07/09 10:54:23;;;;;;;;;;;32.20;53.70;;;;;;5075010;28;19915;-38
2023/07/09 10:56:54;;;;;;;;;;;32.20;53.70;;;;;;5075002;28;20232;-36
2023/07/09 10:59:23;;;;;;;;;;;32.30;53.40;;;;;;5073730;28;19948;-36
2023/07/09 11:01:51;;;;;;;;;;;32.40;53.40;;;;;;5075033;28;19908;-37
2023/07/09 11:04:17;;;;;;;;;;;32.50;53.40;;;;;;5074697;28;19916;-36
2023/07/09 11:06:44;;;;;;;;;;;32.60;53.40;;;;;;5073392;28;19908;-35
2023/07/09 11:09:22;;;;;;;;;;;32.60;53.20;;;;;;5074836;28;19947;-36
2023/07/09 11:11:50;;;;;;;;;;;32.70;53.10;;;;;;5074848;28;19916;-37
2023/07/09 11:14:26;;;;;;;;;;;32.80;53.10;;;;;;5074673;28;19913;-34
2023/07/09 11:16:53;;;;;;;;;;;32.90;53.00;;;;;;5074607;28;19966;-35
2023/07/09 11:19:20;;;;;;;;;;;32.90;52.60;;;;;;5074565;28;20372;-38
2023/07/09 11:21:58;;;;;;;;;;;33.00;52.60;;;;;;5074395;28;19912;-36
2023/07/09 11:24:56;;;;;;;;;;;33.10;52.50;;;;;;5074197;28;19909;-34
2023/07/09 11:27:24;;;;;;;;;;;33.20;52.40;;;;;;5072720;28;19999;-34
2023/07/09 11:30:05;;;;;;;;;;;33.30;52.40;;;;;;5074309;28;19924;-34
2023/07/09 11:32:30;;;;;;;;;;;33.40;51.90;;;;;;5074287;28;19912;-35
2023/07/09 11:35:06;;;;;;;;;;;33.40;51.60;;;;;;5074260;28;19962;-35
2023/07/09 11:37:31;;;;;;;;;;;33.50;51.50;;;;;;5072769;28;19943;-36
2023/07/09 11:40:03;;;;;;;;;;;33.60;51.70;;;;;;5073682;28;19963;-36
2023/07/09 11:42:28;;;;;;;;;;;33.60;51.70;;;;;;5074187;28;19936;-36
2023/07/09 11:45:02;;;;;;;;;;;33.60;51.50;;;;;;5073973;28;19932;-34
2023/07/09 11:47:30;;;;;;;;;;;33.80;51.60;;;;;;5073942;28;19908;-37
2023/07/09 11:49:59;;;;;;;;;;;33.80;51.40;;;;;;5074103;28;20431;-35
2023/07/09 11:52:33;;;;;;;;;;;33.90;51.30;;;;;;5072688;28;19962;-36
2023/07/09 11:55:03;;;;;;;;;;;34.00;51.30;;;;;;5072735;28;19908;-38
2023/07/09 11:57:28;;;;;;;;;;;34.00;51.20;;;;;;5073991;28;19908;-37
2023/07/09 11:59:58;;;;;;;;;;;34.00;51.20;;;;;;5073833;28;19908;-36
2023/07/09 12:02:24;;;;;;;;;;;34.10;51.30;;;;;;5074056;28;19915;-36
2023/07/09 12:04:50;;;;;;;;;;;34.10;51.20;;;;;;5073915;28;19909;-39
2023/07/09 12:07:17;;;;;;;;;;;34.10;50.70;;;;;;5073645;28;19938;-36
2023/07/09 12:09:49;;;;;;;;;;;34.10;50.70;;;;;;5073985;28;19969;-37
2023/07/09 12:12:16;;;;;;;;;;;34.10;50.60;;;;;;5073261;28;20027;-35
2023/07/09 12:14:42;;;;;;;;;;;34.10;50.70;;;;;;5073393;28;19908;-36
2023/07/09 12:17:08;;;;;;;;;;;34.10;50.80;;;;;;5073012;28;19908;-36
2023/07/09 12:19:33;;;;;;;;;;;34.10;50.90;;;;;;5073522;28;19909;-36
2023/07/09 12:21:59;;;;;;;;;;;34.10;50.50;;;;;;5073436;28;19970;-36
2023/07/09 12:24:24;;;;;;;;;;;34.00;50.50;;;;;;5073225;28;19920;-35
2023/07/09 12:27:13;;;;;;;;;;;34.00;50.70;;;;;;5071939;28;19913;-36
2023/07/09 12:29:39;;;;;;;;;;;34.00;50.90;;;;;;5072501;28;20372;-37
2023/07/09 12:32:17;;;;;;;;;;;33.90;50.80;;;;;;5071702;28;19912;-35
2023/07/09 12:34:47;;;;;;;;;;;33.90;50.70;;;;;;5073009;28;19970;-36
2023/07/09 12:37:15;;;;;;;;;;;33.80;50.70;;;;;;5072900;28;19908;-35
2023/07/09 12:39:41;;;;;;;;;;;33.70;50.90;;;;;;5071627;28;19908;-34
2023/07/09 12:42:18;;;;;;;;;;;33.60;50.90;;;;;;5072543;28;19932;-36
2023/07/09 12:44:46;;;;;;;;;;;33.50;51.00;;;;;;5072652;28;19913;-36
2023/07/09 12:47:14;;;;;;;;;;;33.50;51.10;;;;;;5072498;28;19913;-35
2023/07/09 12:49:41;;;;;;;;;;;33.40;51.20;;;;;;5072847;28;20364;-34
2023/07/09 12:52:09;;;;;;;;;;;33.30;51.30;;;;;;5072078;28;20398;-35
2023/07/09 12:54:34;;;;;;;;;;;33.20;51.40;;;;;;5072678;28;19908;-42
2023/07/09 12:57:00;;;;;;;;;;;33.20;51.40;;;;;;5072716;28;19930;-36
2023/07/09 12:59:27;;;;;;;;;;;33.20;52.10;;;;;;5072317;28;19909;-40
2023/07/09 13:02:02;;;;;;;;;;;33.20;51.40;;;;;;5072424;28;19909;-39
2023/07/09 13:04:31;;;;;;;;;;;33.30;51.20;;;;;;5072365;28;19966;-38
2023/07/09 13:06:59;;;;;;;;;;;33.50;51.20;;;;;;5072173;28;19913;-36
2023/07/09 13:09:25;;;;;;;;;;;33.60;51.10;;;;;;5072535;28;20454;-39
2023/07/09 13:11:51;;;;;;;;;;;33.80;51.00;;;;;;5072057;28;20486;-40
2023/07/09 13:14:18;;;;;;;;;;;34.00;50.90;;;;;;5072270;28;19920;-36
2023/07/09 13:16:44;;;;;;;;;;;34.20;50.80;;;;;;5072436;28;20303;-25
2023/07/09 13:19:09;;;;;;;;;;;34.20;50.30;;;;;;5072459;28;19920;-30
2023/07/09 13:21:35;;;;;;;;;;;34.30;50.20;;;;;;5072398;28;19912;-31
2023/07/09 13:24:04;;;;;;;;;;;34.40;50.20;;;;;;5071992;28;19915;-32
2023/07/09 13:26:30;;;;;;;;;;;34.50;50.30;;;;;;5072016;28;19954;-27
2023/07/09 13:28:55;;;;;;;;;;;34.50;50.30;;;;;;5071958;28;19909;-30
2023/07/09 13:31:20;;;;;;;;;;;34.50;49.80;;;;;;5072248;28;19921;-43
2023/07/09 13:33:58;;;;;;;;;;;34.50;49.70;;;;;;5071808;28;19916;-30
2023/07/09 13:36:23;;;;;;;;;;;34.40;49.70;;;;;;5071876;28;19909;-36
2023/07/09 13:38:49;;;;;;;;;;;34.30;49.70;;;;;;5072080;28;19908;-28
2023/07/09 13:41:16;;;;;;;;;;;34.20;49.90;;;;;;5072172;28;19916;-32
2023/07/09 13:43:43;;;;;;;;;;;34.10;50.10;;;;;;5072107;28;20328;-32
2023/07/09 13:46:10;;;;;;;;;;;34.00;50.20;;;;;;5071938;28;19916;-28
2023/07/09 13:48:36;;;;;;;;;;;33.80;50.20;;;;;;5070539;28;19935;-33
2023/07/09 13:51:06;;;;;;;;;;;33.80;50.40;;;;;;5072127;28;19940;-32
2023/07/09 13:53:31;;;;;;;;;;;33.70;50.50;;;;;;5071956;28;19954;-36
2023/07/09 13:55:57;;;;;;;;;;;33.70;50.60;;;;;;5072138;28;19908;-33
2023/07/09 13:58:23;;;;;;;;;;;33.60;50.70;;;;;;5071874;28;19958;-31
2023/07/09 14:00:50;;;;;;;;;;;33.50;50.90;;;;;;5071632;28;19986;-30
2023/07/09 14:03:20;;;;;;;;;;;33.30;51.70;;;;;;5072861;28;19963;-32
2023/07/09 14:05:46;;;;;;;;;;;33.20;51.30;;;;;;5075645;28;20395;-33
2023/07/09 14:08:11;;;;;;;;;;;33.00;51.60;;;;;;5075447;28;19912;-33
2023/07/09 14:10:37;;;;;;;;;;;32.90;52.00;;;;;;5075743;28;19927;-34
2023/07/09 14:13:02;;;;;;;;;;;32.70;52.60;;;;;;5075981;28;19994;-32
2023/07/09 14:15:28;;;;;;;;;;;32.50;53.80;;;;;;5075681;28;20431;-33
2023/07/09 14:17:55;;;;;;;;;;;32.20;53.90;;;;;;5075617;28;19987;-36